Time;durP1;ratioP1;P1;durP2;ratioP2;P2;SDS_P1;SDS_P2;PMS_P1;PMS_P2;Temp;Humidity;BMP_temperature;BMP_pressure;BME280_temperature;BME280_humidity;BME280_pressure;Samples;Min_cycle;Max_cycle;Signal;HPM_P1;HPM_P2
2022/03/22 00:01:44;;;;;;;0.10;0.10;;;4.70;99.90;;;;;;5074370;28;20043;-85
2022/03/22 00:04:11;;;;;;;0.10;0.10;;;4.70;99.90;;;;;;5074241;28;20047;-85
2022/03/22 00:06:38;;;;;;;0.20;0.20;;;4.70;99.90;;;;;;5058061;28;20049;-85
2022/03/22 00:09:05;;;;;;;0.40;0.30;;;4.70;99.90;;;;;;5057745;28;20044;-85
2022/03/22 00:11:33;;;;;;;0.13;0.13;;;4.60;99.90;;;;;;5074513;28;20048;-85
2022/03/22 00:14:00;;;;;;;0.20;0.20;;;4.60;99.90;;;;;;5074032;28;20041;-85
2022/03/22 00:16:27;;;;;;;0.20;0.20;;;4.60;99.90;;;;;;5090569;28;20041;-85
2022/03/22 00:18:53;;;;;;;0.30;0.30;;;4.60;99.90;;;;;;5090407;28;20051;-85
2022/03/22 00:21:20;;;;;;;0.20;0.20;;;4.60;99.90;;;;;;5057296;28;20041;-85
2022/03/22 00:23:47;;;;;;;0.10;0.10;;;4.60;99.90;;;;;;5057098;28;20043;-84
2022/03/22 00:26:14;;;;;;;0.20;0.20;;;4.60;99.90;;;;;;5073891;28;20033;-85
2022/03/22 00:28:41;;;;;;;0.20;0.20;;;4.50;99.90;;;;;;5073698;28;20039;-85
2022/03/22 00:31:08;;;;;;;0.20;0.20;;;4.60;99.90;;;;;;5073701;28;20032;-85
2022/03/22 00:33:35;;;;;;;0.20;0.20;;;4.50;99.90;;;;;;5057632;28;20051;-85
2022/03/22 00:36:03;;;;;;;0.20;0.20;;;4.50;99.90;;;;;;5073804;28;20048;-85
2022/03/22 00:38:29;;;;;;;0.10;0.10;;;4.50;99.90;;;;;;5073681;28;20045;-85
2022/03/22 00:40:57;;;;;;;0.20;0.20;;;4.40;99.90;;;;;;5057186;28;20043;-85
2022/03/22 00:43:24;;;;;;;0.20;0.20;;;4.40;99.90;;;;;;5073454;28;20040;-85
2022/03/22 00:45:51;;;;;;;0.20;0.20;;;4.40;99.90;;;;;;5090026;28;20043;-85
2022/03/22 00:48:18;;;;;;;0.10;0.10;;;4.40;99.90;;;;;;5057039;28;20044;-85
2022/03/22 00:50:47;;;;;;;0.20;0.20;;;4.40;99.90;;;;;;5056876;28;20041;-85
2022/03/22 00:53:18;;;;;;;0.20;0.20;;;4.40;99.90;;;;;;5056953;28;20040;-85
2022/03/22 00:55:46;;;;;;;0.20;0.20;;;4.40;99.90;;;;;;5073497;28;20036;-85
2022/03/22 00:58:13;;;;;;;0.10;0.10;;;4.40;99.90;;;;;;5065989;28;20057;-84
2022/03/22 01:00:41;;;;;;;0.20;0.20;;;4.40;99.90;;;;;;5049794;28;20469;-85
2022/03/22 01:03:09;;;;;;;0.30;0.30;;;4.30;99.90;;;;;;5049866;28;20044;-85
2022/03/22 01:05:37;;;;;;;0.20;0.20;;;4.30;99.90;;;;;;5050126;28;20041;-85
2022/03/22 01:08:10;;;;;;;0.20;0.20;;;4.30;99.90;;;;;;5017603;28;20088;-85
2022/03/22 01:10:39;;;;;;;0.20;0.20;;;4.30;99.90;;;;;;5049247;28;20443;-84
2022/03/22 01:13:07;;;;;;;0.20;0.20;;;4.20;99.90;;;;;;5050190;28;20045;-85
2022/03/22 01:15:36;;;;;;;0.20;0.20;;;4.20;99.90;;;;;;5033509;28;20033;-85
2022/03/22 01:18:07;;;;;;;0.20;0.20;;;4.20;99.90;;;;;;5033160;28;20038;-85
2022/03/22 01:20:38;;;;;;;0.10;0.10;;;4.20;99.90;;;;;;5049820;28;20147;-85
2022/03/22 01:23:09;;;;;;;0.43;0.43;;;4.20;99.90;;;;;;5049702;28;20045;-85
2022/03/22 01:25:38;;;;;;;0.20;0.20;;;4.20;99.90;;;;;;5033751;28;20483;-85
2022/03/22 01:28:07;;;;;;;0.20;0.20;;;4.10;99.90;;;;;;5049663;28;20080;-85
2022/03/22 01:30:35;;;;;;;0.20;0.20;;;4.10;99.90;;;;;;5017483;28;20046;-85
2022/03/22 01:33:02;;;;;;;0.20;0.20;;;4.20;99.90;;;;;;5049441;28;20140;-85
2022/03/22 01:35:29;;;;;;;0.20;0.20;;;4.10;99.90;;;;;;5049898;28;20136;-84
2022/03/22 01:37:57;;;;;;;0.63;0.63;;;4.10;99.90;;;;;;5033064;28;20038;-84
2022/03/22 01:40:26;;;;;;;0.20;0.20;;;4.10;99.90;;;;;;5049708;28;20038;-84
2022/03/22 01:42:53;;;;;;;0.20;0.20;;;4.10;99.90;;;;;;5066030;28;20041;-85
2022/03/22 01:45:20;;;;;;;0.20;0.20;;;4.10;99.90;;;;;;5017168;28;20033;-85
2022/03/22 01:47:49;;;;;;;0.20;0.20;;;4.00;99.90;;;;;;5017000;28;20049;-85
2022/03/22 01:50:19;;;;;;;0.20;0.20;;;4.00;99.90;;;;;;5049278;28;20379;-85
2022/03/22 01:52:46;;;;;;;0.30;0.30;;;4.00;99.90;;;;;;5066176;28;20048;-85
2022/03/22 01:55:16;;;;;;;0.13;0.13;;;4.00;99.90;;;;;;5065448;28;20103;-85
2022/03/22 01:57:43;;;;;;;0.10;0.10;;;4.00;99.90;;;;;;5070341;28;20044;-85
2022/03/22 02:00:13;;;;;;;0.20;0.20;;;4.00;99.90;;;;;;5072858;28;20041;-85
2022/03/22 02:08:13;;;;;;;0.30;0.30;;;4.00;99.90;;;;;;5089077;28;20048;-85
2022/03/22 02:10:40;;;;;;;0.20;0.20;;;3.90;99.90;;;;;;5072761;28;20036;-85
2022/03/22 02:13:07;;;;;;;0.20;0.20;;;3.90;99.90;;;;;;5056281;28;20136;-85
2022/03/22 02:15:34;;;;;;;0.20;0.20;;;3.90;99.90;;;;;;5089405;28;20907;-85
2022/03/22 02:18:01;;;;;;;0.20;0.20;;;3.90;99.90;;;;;;5055824;28;20486;-84
2022/03/22 02:20:28;;;;;;;0.20;0.20;;;3.90;99.90;;;;;;5072561;28;20501;-85
2022/03/22 02:23:00;;;;;;;0.10;0.10;;;3.90;99.90;;;;;;5058133;28;20033;-84
2022/03/22 02:25:27;;;;;;;0.20;0.20;;;3.80;99.90;;;;;;5076241;28;20075;-85
2022/03/22 02:27:54;;;;;;;0.10;0.10;;;3.80;99.90;;;;;;5076189;28;20082;-85
2022/03/22 02:30:22;;;;;;;0.20;0.20;;;3.80;99.90;;;;;;5092800;28;20128;-85
2022/03/22 02:32:53;;;;;;;0.15;0.15;;;3.80;99.90;;;;;;5075841;28;20151;-85
2022/03/22 02:35:22;;;;;;;0.20;0.20;;;3.80;99.90;;;;;;5075695;28;20051;-85
2022/03/22 02:37:49;;;;;;;0.20;0.20;;;3.80;99.90;;;;;;5092544;28;20119;-85
2022/03/22 02:40:16;;;;;;;0.10;0.10;;;3.80;99.90;;;;;;5075575;28;20037;-85
2022/03/22 02:42:53;;;;;;;0.15;0.15;;;3.80;99.90;;;;;;5109205;28;20507;-84
2022/03/22 02:45:22;;;;;;;0.20;0.20;;;3.80;99.90;;;;;;5092460;28;20088;-85
2022/03/22 02:47:49;;;;;;;0.20;0.20;;;3.80;99.90;;;;;;5075893;28;20048;-85
2022/03/22 02:50:17;;;;;;;0.47;0.47;;;3.80;99.90;;;;;;5077401;28;20131;-85
2022/03/22 02:52:47;;;;;;;0.50;0.50;;;3.70;99.90;;;;;;5105095;28;20512;-85
2022/03/22 02:55:14;;;;;;;0.20;0.20;;;3.70;99.90;;;;;;5096218;28;20169;-86
2022/03/22 02:57:41;;;;;;;0.20;0.20;;;3.70;99.90;;;;;;5112280;28;20043;-85
2022/03/22 03:00:11;;;;;;;0.13;0.13;;;3.70;99.90;;;;;;5095752;28;20040;-85
2022/03/22 03:02:49;;;;;;;0.20;0.20;;;3.70;99.90;;;;;;5095534;28;20077;-86
2022/03/22 03:05:17;;;;;;;0.20;0.20;;;3.70;99.90;;;;;;5095485;28;20036;-85
2022/03/22 03:07:44;;;;;;;0.20;0.20;;;3.70;99.90;;;;;;5112300;28;20067;-84
2022/03/22 03:10:11;;;;;;;0.20;0.20;;;3.60;99.90;;;;;;5111875;28;20136;-85
2022/03/22 03:12:39;;;;;;;0.20;0.20;;;3.60;99.90;;;;;;5095618;28;20518;-85
2022/03/22 03:15:08;;;;;;;0.20;0.20;;;3.60;99.90;;;;;;5112044;28;20535;-86
2022/03/22 03:17:36;;;;;;;0.20;0.20;;;3.60;99.90;;;;;;5095473;28;20107;-85
2022/03/22 03:20:05;;;;;;;0.20;0.20;;;3.60;99.90;;;;;;5079029;28;20480;-85
2022/03/22 03:22:37;;;;;;;0.13;0.13;;;3.60;99.90;;;;;;5111894;28;20035;-85
2022/03/22 03:25:06;;;;;;;0.20;0.20;;;3.60;99.90;;;;;;5095009;28;20040;-85
2022/03/22 03:27:33;;;;;;;0.20;0.20;;;3.60;99.90;;;;;;5095438;28;20040;-85
2022/03/22 03:30:00;;;;;;;0.20;0.20;;;3.60;99.90;;;;;;5078739;28;20048;-84
2022/03/22 03:32:27;;;;;;;0.20;0.20;;;3.60;99.90;;;;;;5095090;28;20032;-85
2022/03/22 03:34:53;;;;;;;0.20;0.20;;;3.60;99.90;;;;;;5111093;28;20043;-84
2022/03/22 03:37:23;;;;;;;0.15;0.15;;;3.50;99.90;;;;;;5078160;28;20040;-84
2022/03/22 03:39:52;;;;;;;0.20;0.20;;;3.60;99.90;;;;;;5095116;28;20492;-85
2022/03/22 03:42:20;;;;;;;0.20;0.20;;;3.60;99.90;;;;;;5078201;28;20094;-85
2022/03/22 03:47:34;;;;;;;0.20;0.20;;;3.50;99.90;;;;;;5097502;28;20259;-85
2022/03/22 03:50:05;;;;;;;0.20;0.20;;;3.50;99.90;;;;;;5062923;28;20036;-84
2022/03/22 03:52:34;;;;;;;0.13;0.13;;;3.50;99.90;;;;;;5111822;28;20093;-85
2022/03/22 03:55:03;;;;;;;0.13;0.13;;;3.50;99.90;;;;;;5111880;28;20527;-85
2022/03/22 03:57:30;;;;;;;0.43;0.43;;;3.50;99.90;;;;;;5110866;28;20097;-85
2022/03/22 03:59:57;;;;;;;0.20;0.20;;;3.40;99.90;;;;;;5078233;28;20048;-85
2022/03/22 04:02:24;;;;;;;0.20;0.20;;;3.40;99.90;;;;;;5094499;28;20051;-85
2022/03/22 04:04:55;;;;;;;0.20;0.20;;;3.40;99.90;;;;;;5111237;28;20493;-85
2022/03/22 04:07:26;;;;;;;0.20;0.20;;;3.40;99.90;;;;;;5094940;28;20205;-85
2022/03/22 04:09:56;;;;;;;0.17;0.17;;;3.40;99.90;;;;;;5111077;28;20040;-84
2022/03/22 04:12:23;;;;;;;0.20;0.20;;;3.40;99.90;;;;;;5094626;28;20104;-85
2022/03/22 04:14:51;;;;;;;0.30;0.30;;;3.40;99.90;;;;;;5094517;28;20484;-84
2022/03/22 04:17:18;;;;;;;0.20;0.20;;;3.40;99.90;;;;;;5094200;28;20036;-85
2022/03/22 04:19:48;;;;;;;0.20;0.20;;;3.40;99.90;;;;;;5077814;28;20512;-85
2022/03/22 04:22:16;;;;;;;0.20;0.20;;;3.40;99.90;;;;;;5094398;28;20070;-84
2022/03/22 04:24:43;;;;;;;0.20;0.20;;;3.40;99.90;;;;;;5094368;28;20031;-84
2022/03/22 04:32:54;;;;;;;0.20;0.20;;;3.40;99.90;;;;;;5055081;28;20142;-85
2022/03/22 04:35:27;;;;;;;0.20;0.20;;;3.40;99.90;;;;;;5077128;28;20511;-85
2022/03/22 04:37:55;;;;;;;0.20;0.20;;;3.40;99.90;;;;;;5078792;28;20626;-85
2022/03/22 04:40:23;;;;;;;0.20;0.20;;;3.40;99.90;;;;;;5110632;28;20047;-85
2022/03/22 04:42:52;;;;;;;0.20;0.20;;;3.40;99.90;;;;;;5110442;28;20043;-85
2022/03/22 04:45:20;;;;;;;0.20;0.20;;;3.40;99.90;;;;;;5077490;28;20039;-85
2022/03/22 04:47:46;;;;;;;0.20;0.20;;;3.40;99.90;;;;;;5110280;28;20127;-85
2022/03/22 04:50:15;;;;;;;0.20;0.20;;;3.40;99.90;;;;;;5093466;28;20224;-85
2022/03/22 04:58:13;;;;;;;0.20;0.20;;;3.40;99.90;;;;;;5109961;28;20065;-84
2022/03/22 05:00:40;;;;;;;0.20;0.20;;;3.40;99.90;;;;;;5110167;28;20040;-85
2022/03/22 05:03:08;;;;;;;0.10;0.10;;;3.40;99.90;;;;;;5093762;28;20039;-85
2022/03/22 05:08:20;;;;;;;0.20;0.20;;;3.40;99.90;;;;;;5095948;28;20048;-85
2022/03/22 05:10:47;;;;;;;0.20;0.20;;;3.40;99.90;;;;;;5093613;28;20156;-85
2022/03/22 05:13:14;;;;;;;0.20;0.20;;;3.40;99.90;;;;;;5076886;28;20852;-85
2022/03/22 05:15:41;;;;;;;0.20;0.20;;;3.30;99.90;;;;;;5109658;28;20521;-84
2022/03/22 05:18:08;;;;;;;0.10;0.10;;;3.40;99.90;;;;;;5076128;28;20057;-85
2022/03/22 05:20:35;;;;;;;0.10;0.10;;;3.30;99.90;;;;;;5075788;28;20039;-85
2022/03/22 05:23:03;;;;;;;0.30;0.30;;;3.30;99.90;;;;;;5076178;28;20047;-84
2022/03/22 05:25:31;;;;;;;0.20;0.20;;;3.40;99.90;;;;;;5092842;28;20057;-85
2022/03/22 05:28:04;;;;;;;0.17;0.17;;;3.30;99.90;;;;;;5093022;28;20044;-85
2022/03/22 05:30:32;;;;;;;0.10;0.10;;;3.40;99.90;;;;;;5109262;28;20042;-85
2022/03/22 05:32:59;;;;;;;0.20;0.20;;;3.40;99.90;;;;;;5076307;28;20046;-85
2022/03/22 05:35:26;;;;;;;0.17;0.17;;;3.40;99.90;;;;;;5109883;28;20040;-85
2022/03/22 05:37:53;;;;;;;0.20;0.20;;;3.30;99.90;;;;;;5092836;28;20496;-85
2022/03/22 05:40:20;;;;;;;0.20;0.20;;;3.40;99.90;;;;;;5092558;28;20046;-84
2022/03/22 05:42:47;;;;;;;0.20;0.20;;;3.40;99.90;;;;;;5092716;28;20499;-84
2022/03/22 05:45:15;;;;;;;0.20;0.20;;;3.40;99.90;;;;;;5076010;28;20062;-85
2022/03/22 05:47:42;;;;;;;0.20;0.20;;;3.30;99.90;;;;;;5092986;28;20078;-85
2022/03/22 05:50:09;;;;;;;0.20;0.20;;;3.30;99.90;;;;;;5075894;28;20075;-85
2022/03/22 05:52:44;;;;;;;0.20;0.20;;;3.40;99.90;;;;;;5072568;28;20037;-84
2022/03/22 05:55:12;;;;;;;0.28;0.28;;;3.40;99.90;;;;;;5075461;28;20048;-86
2022/03/22 05:57:39;;;;;;;0.20;0.20;;;3.40;99.90;;;;;;5075870;28;20047;-85
2022/03/22 06:00:08;;;;;;;0.20;0.20;;;3.40;99.90;;;;;;5060265;28;20076;-85
2022/03/22 06:02:40;;;;;;;0.13;0.13;;;3.40;99.90;;;;;;5092883;28;20090;-84
2022/03/22 06:05:09;;;;;;;0.20;0.20;;;3.40;99.90;;;;;;5093158;28;20781;-84
2022/03/22 06:07:36;;;;;;;0.20;0.20;;;3.40;99.90;;;;;;5060278;28;20067;-85
2022/03/22 06:10:05;;;;;;;0.40;0.40;;;3.40;99.90;;;;;;5076178;28;20555;-85
2022/03/22 06:12:45;;;;;;;0.20;0.20;;;3.50;99.90;;;;;;5092793;28;20037;-85
2022/03/22 06:15:17;;;;;;;0.20;0.20;;;3.50;99.90;;;;;;5092899;28;20036;-85
2022/03/22 06:17:56;;;;;;;0.20;0.20;;;3.50;99.90;;;;;;5093055;28;20037;-85
2022/03/22 06:20:25;;;;;;;0.20;0.20;;;3.60;99.90;;;;;;5060610;28;20080;-84
2022/03/22 06:22:53;;;;;;;0.20;0.20;;;3.60;99.90;;;;;;5092812;28;20099;-85
2022/03/22 06:25:20;;;;;;;0.25;0.25;;;3.60;99.90;;;;;;5076340;28;20044;-84
2022/03/22 06:27:49;;;;;;;0.20;0.20;;;3.70;99.90;;;;;;5092770;28;20043;-85
2022/03/22 06:30:17;;;;;;;0.20;0.20;;;3.70;99.90;;;;;;5092724;28;20485;-85
2022/03/22 06:32:46;;;;;;;0.20;0.20;;;3.70;99.90;;;;;;5092277;28;20052;-85
2022/03/22 06:35:20;;;;;;;0.20;0.20;;;3.70;99.90;;;;;;5094971;28;20056;-84
2022/03/22 06:37:48;;;;;;;0.20;0.20;;;3.70;99.90;;;;;;5060012;28;20040;-85
2022/03/22 06:40:17;;;;;;;2.63;0.50;;;3.80;99.90;;;;;;5076063;28;20528;-85
2022/03/22 06:42:43;;;;;;;0.20;0.20;;;3.80;99.90;;;;;;5093882;28;20230;-85
2022/03/22 06:45:11;;;;;;;0.50;0.50;;;3.80;99.90;;;;;;5059420;28;20190;-85
2022/03/22 06:47:41;;;;;;;0.10;0.10;;;3.90;99.90;;;;;;5092012;28;20040;-85
2022/03/22 06:50:10;;;;;;;0.10;0.10;;;3.90;99.90;;;;;;5075975;28;20056;-85
2022/03/22 06:52:37;;;;;;;0.20;0.20;;;4.00;99.90;;;;;;5092434;28;20037;-84
2022/03/22 06:55:05;;;;;;;0.20;0.20;;;4.00;99.90;;;;;;5092081;28;20481;-85
2022/03/22 06:57:33;;;;;;;0.20;0.20;;;4.10;99.90;;;;;;5075208;28;20513;-84
2022/03/22 07:00:00;;;;;;;0.20;0.20;;;4.10;99.90;;;;;;5075455;28;20201;-84
2022/03/22 07:02:27;;;;;;;0.85;0.60;;;4.20;99.90;;;;;;5059448;28;20044;-84
2022/03/22 07:04:54;;;;;;;0.10;0.10;;;4.30;99.90;;;;;;5091875;28;20852;-85
2022/03/22 07:07:22;;;;;;;0.17;0.17;;;4.40;99.90;;;;;;5058879;28;20044;-84
2022/03/22 07:09:49;;;;;;;0.20;0.20;;;4.40;99.90;;;;;;5088010;28;20041;-86
2022/03/22 07:12:15;;;;;;;0.10;0.10;;;4.50;99.90;;;;;;5091600;28;20094;-85
2022/03/22 07:14:42;;;;;;;0.10;0.10;;;4.70;99.90;;;;;;5066309;28;20048;-85
2022/03/22 07:17:10;;;;;;;0.10;0.10;;;4.80;99.90;;;;;;5058460;28;20769;-83
2022/03/22 07:19:38;;;;;;;0.10;0.10;;;4.90;99.90;;;;;;5091586;28;20036;-85
2022/03/22 07:22:06;;;;;;;0.10;0.10;;;5.00;99.90;;;;;;5058584;28;20044;-84
2022/03/22 07:24:33;;;;;;;0.50;0.50;;;5.10;99.90;;;;;;5058431;28;20519;-84
2022/03/22 07:27:00;;;;;;;0.10;0.10;;;5.20;99.90;;;;;;5074969;28;20067;-84
2022/03/22 07:29:27;;;;;;;0.30;0.30;;;5.40;99.90;;;;;;5067702;28;20044;-84
2022/03/22 07:31:56;;;;;;;0.17;0.17;;;5.50;99.90;;;;;;5058500;28;20056;-84
2022/03/22 07:34:24;;;;;;;0.20;0.20;;;5.60;99.90;;;;;;5078671;28;20036;-84
2022/03/22 07:36:52;;;;;;;0.10;0.10;;;5.70;99.90;;;;;;5078128;28;20047;-84
2022/03/22 07:39:21;;;;;;;0.20;0.20;;;5.70;99.90;;;;;;5094856;28;20032;-84
2022/03/22 07:41:48;;;;;;;0.15;0.15;;;5.90;99.90;;;;;;5094379;28;20072;-86
2022/03/22 07:44:15;;;;;;;0.10;0.10;;;6.00;99.90;;;;;;5094809;28;20044;-85
2022/03/22 07:46:43;;;;;;;0.10;0.10;;;6.10;99.90;;;;;;5078281;28;20044;-85
2022/03/22 07:54:42;;;;;;;0.20;0.20;;;6.50;99.90;;;;;;5086117;28;20045;-86
2022/03/22 07:57:10;;;;;;;0.73;0.73;;;6.60;99.90;;;;;;5093152;28;20043;-85
2022/03/22 07:59:36;;;;;;;0.30;0.30;;;6.70;99.90;;;;;;5094445;28;20184;-85
2022/03/22 08:02:04;;;;;;;0.10;0.10;;;6.90;99.90;;;;;;5095167;28;20044;-88
2022/03/22 08:04:31;;;;;;;0.10;0.10;;;7.00;99.90;;;;;;5062231;28;20116;-90
2022/03/22 08:06:58;;;;;;;0.10;0.10;;;7.10;99.90;;;;;;5094537;28;20035;-85
2022/03/22 08:09:25;;;;;;;0.10;0.10;;;7.30;99.90;;;;;;5077874;28;20043;-85
2022/03/22 08:11:52;;;;;;;0.10;0.10;;;7.30;99.90;;;;;;5061791;28;20420;-87
2022/03/22 08:14:20;;;;;;;0.10;0.10;;;7.50;99.90;;;;;;5078473;28;20180;-87
2022/03/22 08:16:47;;;;;;;1.88;0.38;;;7.70;99.90;;;;;;5062113;28;20079;-88
2022/03/22 08:19:18;;;;;;;0.10;0.10;;;7.80;99.90;;;;;;5078656;28;20033;-85
2022/03/22 08:21:46;;;;;;;0.10;0.10;;;8.00;99.90;;;;;;5078055;28;20040;-85
2022/03/22 08:24:13;;;;;;;0.10;0.10;;;8.10;99.90;;;;;;5074272;28;20119;-85
2022/03/22 08:26:40;;;;;;;0.10;0.10;;;8.30;99.90;;;;;;5070810;28;20156;-87
2022/03/22 08:29:07;;;;;;;0.40;0.40;;;8.40;99.90;;;;;;5094873;28;20110;-87
2022/03/22 08:31:35;;;;;;;0.17;0.17;;;8.60;99.90;;;;;;5092828;28;20123;-88
2022/03/22 08:34:03;;;;;;;0.10;0.10;;;8.70;99.90;;;;;;5057397;28;20416;-88
2022/03/22 08:36:30;;;;;;;0.10;0.10;;;8.80;99.90;;;;;;5090688;28;20096;-88
2022/03/22 08:38:58;;;;;;;0.10;0.10;;;9.00;99.90;;;;;;5061328;28;20081;-86
2022/03/22 08:41:25;;;;;;;0.10;0.10;;;9.20;99.90;;;;;;5058397;28;20111;-88
2022/03/22 08:43:54;;;;;;;0.10;0.10;;;9.40;99.90;;;;;;5057263;28;20127;-86
2022/03/22 08:46:24;;;;;;;0.10;0.10;;;9.50;99.90;;;;;;5042424;28;20105;-86
2022/03/22 08:48:53;;;;;;;0.10;0.10;;;9.60;99.90;;;;;;5042700;28;20037;-86
2022/03/22 08:51:24;;;;;;;0.10;0.10;;;9.80;99.90;;;;;;5083627;28;20042;-86
2022/03/22 08:53:53;;;;;;;0.10;0.10;;;9.90;99.90;;;;;;5059299;28;20390;-88
2022/03/22 08:56:22;;;;;;;0.10;0.10;;;10.00;99.90;;;;;;5090473;28;20032;-88
2022/03/22 08:58:53;;;;;;;0.10;0.10;;;10.20;99.90;;;;;;5075366;28;20056;-89
2022/03/22 09:01:24;;;;;;;0.03;0.03;;;10.30;99.90;;;;;;5080721;28;20043;-88
2022/03/22 09:06:07;;;;;;;0.15;0.15;;;10.50;99.90;;;;;;5064379;28;20097;-87
2022/03/22 09:06:39;;;;;;;0.10;0.10;;;10.60;99.90;;;;;;5089281;28;20105;-86
2022/03/22 09:09:06;;;;;;;0.10;0.10;;;10.80;99.90;;;;;;5077898;28;20040;-89
2022/03/22 09:11:39;;;;;;;0.10;0.10;;;10.90;99.90;;;;;;5076386;28;20066;-87
2022/03/22 09:14:06;;;;;;;0.10;0.10;;;11.10;99.90;;;;;;5061131;28;20114;-89
2022/03/22 09:16:33;;;;;;;0.05;0.05;;;11.20;99.90;;;;;;5053606;28;20548;-89
2022/03/22 09:19:00;;;;;;;0.10;0.10;;;11.40;99.90;;;;;;5040813;28;20036;-89
2022/03/22 09:21:27;;;;;;;0.15;0.15;;;11.50;99.90;;;;;;5057577;28;20226;-87
2022/03/22 09:23:54;;;;;;;0.00;0.00;;;11.70;99.90;;;;;;5090143;28;20764;-89
2022/03/22 09:26:21;;;;;;;0.20;0.20;;;11.90;99.90;;;;;;5073831;28;20043;-90
2022/03/22 09:28:52;;;;;;;0.10;0.10;;;12.00;99.90;;;;;;5090269;28;20459;-87
2022/03/22 09:31:20;;;;;;;0.10;0.10;;;12.10;99.90;;;;;;5090728;28;20036;-87
2022/03/22 09:33:48;;;;;;;0.20;0.20;;;12.20;99.90;;;;;;5106977;28;20454;-88
2022/03/22 09:36:15;;;;;;;0.05;0.05;;;12.40;99.90;;;;;;5057400;28;20044;-89
2022/03/22 09:38:42;;;;;;;0.25;0.20;;;12.50;99.90;;;;;;5057165;28;20049;-89
2022/03/22 09:41:13;;;;;;;0.00;0.00;;;12.60;99.90;;;;;;5090380;28;20097;-90
2022/03/22 09:43:47;;;;;;;0.10;0.10;;;12.70;99.90;;;;;;5090179;28;20501;-90
2022/03/22 09:46:19;;;;;;;0.10;0.10;;;12.70;99.90;;;;;;5080223;28;20052;-89
2022/03/22 09:48:47;;;;;;;0.80;0.13;;;12.80;99.90;;;;;;5041329;28;20402;-87
2022/03/22 09:54:00;;;;;;;;;;;13.00;99.90;;;;;;5093126;28;20502;-86
2022/03/22 09:56:31;;;;;;;0.20;0.10;;;13.10;99.90;;;;;;5090139;28;20006;-87
2022/03/22 09:58:59;;;;;;;0.10;0.10;;;13.20;99.90;;;;;;5061868;28;20057;-86
2022/03/22 10:01:26;;;;;;;0.32;0.10;;;13.30;99.90;;;;;;5076810;28;20141;-86
2022/03/22 10:03:58;;;;;;;0.00;0.00;;;13.40;99.90;;;;;;5060393;28;20127;-90
2022/03/22 10:06:25;;;;;;;0.00;0.00;;;13.60;99.90;;;;;;5093599;28;20405;-91
2022/03/22 10:08:52;;;;;;;0.00;0.00;;;13.70;99.90;;;;;;5077369;28;20047;-87
2022/03/22 10:11:20;;;;;;;0.17;0.17;;;13.80;99.90;;;;;;5060775;28;20816;-87
2022/03/22 10:13:54;;;;;;;0.22;0.20;;;13.80;99.90;;;;;;5077001;28;20036;-90
2022/03/22 10:16:22;;;;;;;1.58;0.52;;;13.80;99.90;;;;;;5076950;28;20039;-91
2022/03/22 10:18:48;;;;;;;0.05;0.05;;;13.90;99.90;;;;;;5076514;28;20489;-86
2022/03/22 10:21:15;;;;;;;0.20;0.10;;;14.00;99.90;;;;;;5093216;28;20039;-87
2022/03/22 10:23:54;;;;;;;0.10;0.10;;;14.00;99.90;;;;;;5073597;28;20044;-86
2022/03/22 10:26:31;;;;;;;1.55;0.57;;;14.20;99.90;;;;;;5092688;28;20524;-84
2022/03/22 10:28:58;;;;;;;0.20;0.20;;;14.30;99.90;;;;;;5092766;28;20123;-85
2022/03/22 10:31:34;;;;;;;0.00;0.00;;;14.40;99.90;;;;;;5093033;28;20082;-87
2022/03/22 10:34:01;;;;;;;0.10;0.10;;;14.60;99.90;;;;;;5092979;28;20488;-87
2022/03/22 10:36:27;;;;;;;0.00;0.00;;;14.60;99.90;;;;;;5092934;28;20047;-88
2022/03/22 10:39:01;;;;;;;0.20;0.20;;;14.80;99.90;;;;;;5076568;28;20036;-89
2022/03/22 10:41:30;;;;;;;0.20;0.20;;;14.90;99.90;;;;;;5093004;28;20431;-89
2022/03/22 10:44:18;;;;;;;0.00;0.00;;;15.00;99.40;;;;;;5111736;28;20044;-87
2022/03/22 10:46:47;;;;;;;0.17;0.17;;;15.10;97.40;;;;;;5113087;28;20525;-89
2022/03/22 10:49:19;;;;;;;0.17;0.15;;;15.10;99.90;;;;;;5097260;28;20501;-87
2022/03/22 10:51:50;;;;;;;0.40;0.20;;;15.20;99.90;;;;;;5098577;28;20074;-86
2022/03/22 10:54:19;;;;;;;0.20;0.20;;;15.30;99.90;;;;;;5112793;28;20122;-87
2022/03/22 10:56:53;;;;;;;0.65;0.20;;;15.40;99.90;;;;;;5096126;28;20043;-87
2022/03/22 10:59:24;;;;;;;0.20;0.20;;;15.50;99.90;;;;;;5096613;28;20044;-89
2022/03/22 11:01:52;;;;;;;0.20;0.20;;;15.60;99.90;;;;;;5113671;28;20028;-88
2022/03/22 11:04:19;;;;;;;0.35;0.22;;;15.60;99.90;;;;;;5113074;28;20047;-89
2022/03/22 11:06:48;;;;;;;0.88;0.30;;;15.70;99.90;;;;;;5104046;28;20037;-89
2022/03/22 11:09:22;;;;;;;0.10;0.10;;;15.80;98.90;;;;;;5075875;28;20136;-87
2022/03/22 11:11:50;;;;;;;0.25;0.22;;;15.90;99.90;;;;;;5075961;28;20416;-86
2022/03/22 11:14:18;;;;;;;0.00;0.00;;;15.90;99.90;;;;;;5076094;28;20036;-89
2022/03/22 11:16:47;;;;;;;0.45;0.43;;;15.90;99.90;;;;;;5075512;28;20032;-87
2022/03/22 11:19:16;;;;;;;0.13;0.13;;;16.10;99.90;;;;;;5075923;28;20405;-87
2022/03/22 11:21:43;;;;;;;1.02;0.60;;;16.20;99.90;;;;;;5076314;28;20033;-87
2022/03/22 11:24:12;;;;;;;0.38;0.22;;;16.20;99.90;;;;;;5077402;28;20043;-90
2022/03/22 11:26:51;;;;;;;1.33;0.68;;;16.20;99.90;;;;;;5094710;28;20115;-87
2022/03/22 11:29:19;;;;;;;0.75;0.47;;;16.30;99.90;;;;;;5094721;28;20036;-90
2022/03/22 11:34:39;;;;;;;0.70;0.52;;;16.40;97.60;;;;;;5102286;28;20044;-89
2022/03/22 11:37:06;;;;;;;1.30;0.55;;;16.50;96.90;;;;;;5095350;28;20036;-89
2022/03/22 11:42:25;;;;;;;0.93;0.52;;;16.70;99.70;;;;;;5084766;28;20490;-87
2022/03/22 11:45:00;;;;;;;0.60;0.47;;;16.70;98.10;;;;;;5078621;28;20493;-90
2022/03/22 11:47:41;;;;;;;0.65;0.40;;;16.70;95.90;;;;;;5086535;28;20122;-87
2022/03/22 11:50:11;;;;;;;1.75;0.77;;;16.70;96.60;;;;;;5079051;28;20127;-87
2022/03/22 11:52:41;;;;;;;0.90;0.52;;;16.80;98.10;;;;;;5095618;28;20040;-88
2022/03/22 11:55:16;;;;;;;1.00;0.60;;;16.80;95.20;;;;;;5073937;28;20127;-88
2022/03/22 11:57:48;;;;;;;0.68;0.38;;;16.90;96.70;;;;;;5061635;28;20523;-88
2022/03/22 12:00:21;;;;;;;3.38;0.47;;;16.90;96.60;;;;;;5091784;28;20044;-87
2022/03/22 12:02:53;;;;;;;2.40;0.95;;;16.90;98.50;;;;;;5075187;28;20500;-87
2022/03/22 12:05:22;;;;;;;2.08;0.73;;;17.00;96.70;;;;;;5058611;28;20044;-90
2022/03/22 12:07:51;;;;;;;1.73;0.68;;;17.10;93.30;;;;;;5042558;28;20428;-90
2022/03/22 12:10:24;;;;;;;1.67;0.88;;;17.10;96.20;;;;;;5075334;28;20504;-91
2022/03/22 12:12:50;;;;;;;5.15;1.02;;;17.20;90.60;;;;;;5058579;28;20114;-91
2022/03/22 12:15:22;;;;;;;3.42;0.60;;;17.30;93.40;;;;;;5041909;28;20135;-90
2022/03/22 12:17:48;;;;;;;0.75;0.47;;;17.30;93.80;;;;;;5074977;28;20047;-90
2022/03/22 12:20:18;;;;;;;1.08;0.57;;;17.40;92.30;;;;;;5074637;28;20049;-90
2022/03/22 12:22:51;;;;;;;0.95;0.52;;;17.40;93.50;;;;;;5086343;28;20473;-89
2022/03/22 12:25:21;;;;;;;1.25;0.70;;;17.40;94.50;;;;;;5074617;28;20044;-88
2022/03/22 12:28:09;;;;;;;2.40;0.73;;;17.40;91.10;;;;;;5074945;28;20174;-87
2022/03/22 12:30:39;;;;;;;2.50;0.82;;;17.50;94.40;;;;;;5075017;28;20405;-89
2022/03/22 12:33:11;;;;;;;3.05;1.25;;;17.50;92.80;;;;;;5074548;28;20044;-87
2022/03/22 12:35:39;;;;;;;2.13;0.63;;;17.50;92.80;;;;;;5075283;28;20076;-90
2022/03/22 12:38:07;;;;;;;1.20;0.75;;;17.50;94.50;;;;;;5074454;28;20481;-87
2022/03/22 12:40:34;;;;;;;0.95;0.65;;;17.50;92.50;;;;;;5058571;28;20041;-89
2022/03/22 12:43:01;;;;;;;3.25;1.05;;;17.50;93.30;;;;;;5091634;28;20464;-87
2022/03/22 12:45:32;;;;;;;1.17;0.47;;;17.50;91.20;;;;;;5074728;28;20043;-89
2022/03/22 12:48:00;;;;;;;3.45;1.63;;;17.50;90.00;;;;;;5074537;28;20047;-88
2022/03/22 12:50:28;;;;;;;2.45;0.85;;;17.50;91.60;;;;;;5057861;28;20045;-87
2022/03/22 12:52:56;;;;;;;2.63;1.13;;;17.50;90.50;;;;;;5104925;28;20043;-90
2022/03/22 12:55:23;;;;;;;2.08;0.98;;;17.40;91.20;;;;;;5094579;28;20075;-90
2022/03/22 12:57:51;;;;;;;2.08;1.08;;;17.40;90.10;;;;;;5077962;28;20077;-87
2022/03/22 13:00:30;;;;;;;1.02;0.60;;;17.40;91.00;;;;;;5103823;28;20036;-86
2022/03/22 13:03:05;;;;;;;1.92;0.88;;;17.50;92.20;;;;;;5111749;28;20040;-86
2022/03/22 13:05:32;;;;;;;;;;;17.50;90.30;;;;;;5094446;28;20044;-87
2022/03/22 13:08:00;;;;;;;0.77;0.50;;;17.40;87.20;;;;;;5090514;28;19925;-87
2022/03/22 13:13:19;;;;;;;2.75;0.75;;;17.50;92.50;;;;;;5077847;28;20416;-89
2022/03/22 13:15:53;;;;;;;1.85;0.75;;;17.50;91.20;;;;;;5079214;28;20493;-89
2022/03/22 13:18:20;;;;;;;1.00;0.60;;;17.50;90.00;;;;;;5076116;28;20549;-88
2022/03/22 13:20:47;;;;;;;1.60;0.95;;;17.50;87.20;;;;;;5078120;28;20082;-87
2022/03/22 13:23:15;;;;;;;3.22;1.10;;;17.60;90.90;;;;;;5094240;28;20051;-86
2022/03/22 13:25:44;;;;;;;1.15;0.50;;;17.60;90.20;;;;;;5101396;28;20454;-89
2022/03/22 13:28:13;;;;;;;1.30;0.68;;;17.50;88.10;;;;;;5077850;28;20041;-88
2022/03/22 13:30:46;;;;;;;1.85;1.13;;;17.60;90.30;;;;;;5078777;28;20123;-90
2022/03/22 13:33:17;;;;;;;2.17;0.85;;;17.60;89.90;;;;;;5083543;28;20131;-89
2022/03/22 13:35:56;;;;;;;3.28;1.40;;;17.60;88.80;;;;;;5090667;28;20135;-87
2022/03/22 13:38:24;;;;;;;1.25;0.50;;;17.60;88.70;;;;;;5089932;28;20048;-85
2022/03/22 13:40:57;;;;;;;2.40;0.90;;;17.60;90.70;;;;;;5073358;28;20040;-86